Time,TemperatureF,DewpointF,PressureIn,WindDirection,WindDirectionDegrees,WindSpeedMPH,WindSpeedGustMPH,Humidity,HourlyPrecipIn,Conditions,Clouds,dailyrainin,SolarRadiationWatts/m^2,SoftwareType,DateUTC
2013-04-23 00:07:00,75.3,69.0,29.99,ESE,102,9.0,13.0,80,0.01,,,0.00,0,weatherlink.com 1.10,2013-04-23 04:07:00,
2013-04-23 00:22:00,74.3,69.0,29.99,East,90,3.0,10.0,82,0.01,,,0.00,0,weatherlink.com 1.10,2013-04-23 04:22:00,
2013-04-23 00:37:00,74.5,69.0,29.99,East,101,3.0,7.0,83,0.01,,,0.00,0,weatherlink.com 1.10,2013-04-23 04:37:00,
2013-04-23 00:52:00,74.4,69.0,29.98,ESE,110,7.0,10.0,83,0.01,,,0.00,0,weatherlink.com 1.10,2013-04-23 04:52:00,
2013-04-23 01:08:00,73.6,70.0,29.98,East,93,0.0,12.0,87,0.07,,,0.07,0,weatherlink.com 1.10,2013-04-23 05:08:00,
2013-04-23 01:23:00,73.3,70.0,29.97,East,93,0.0,1.0,89,0.07,,,0.07,0,weatherlink.com 1.10,2013-04-23 05:23:00,
2013-04-23 01:38:00,73.1,70.0,29.96,East,93,0.0,6.0,90,0.07,,,0.07,0,weatherlink.com 1.10,2013-04-23 05:38:00,
2013-04-23 01:53:00,73.0,70.0,29.96,East,94,5.0,7.0,90,0.07,,,0.07,0,weatherlink.com 1.10,2013-04-23 05:53:00,
2013-04-23 02:08:00,72.7,70.0,29.95,East,94,0.0,5.0,90,0.00,,,0.07,0,weatherlink.com 1.10,2013-04-23 06:08:00,
2013-04-23 02:23:00,72.8,70.0,29.95,East,94,0.0,5.0,91,0.00,,,0.07,0,weatherlink.com 1.10,2013-04-23 06:23:00,
2013-04-23 02:38:00,72.6,70.0,29.95,East,94,0.0,6.0,90,0.00,,,0.07,0,weatherlink.com 1.10,2013-04-23 06:38:00,
2013-04-23 02:53:00,72.6,70.0,29.94,East,94,0.0,1.0,90,0.00,,,0.07,0,weatherlink.com 1.10,2013-04-23 06:53:00,
2013-04-23 03:08:00,72.5,70.0,29.94,East,94,1.0,2.0,91,0.00,,,0.07,0,weatherlink.com 1.10,2013-04-23 07:08:00,
2013-04-23 03:23:00,72.3,69.0,29.94,East,94,0.0,5.0,90,0.00,,,0.07,0,weatherlink.com 1.10,2013-04-23 07:23:00,
2013-04-23 03:38:00,72.2,69.0,29.94,East,94,5.0,5.0,90,0.00,,,0.07,0,weatherlink.com 1.10,2013-04-23 07:38:00,
2013-04-23 03:53:00,72.4,69.0,29.94,East,94,5.0,5.0,89,0.00,,,0.07,0,weatherlink.com 1.10,2013-04-23 07:53:00,
2013-04-23 04:08:00,72.6,69.0,29.94,East,94,0.0,6.0,89,0.00,,,0.07,0,weatherlink.com 1.10,2013-04-23 08:08:00,
2013-04-23 04:23:00,72.6,69.0,29.94,East,94,0.0,7.0,89,0.00,,,0.07,0,weatherlink.com 1.10,2013-04-23 08:23:00,
2013-04-23 04:38:00,72.5,69.0,29.94,East,94,0.0,3.0,88,0.00,,,0.07,0,weatherlink.com 1.10,2013-04-23 08:38:00,
2013-04-23 04:53:00,72.4,69.0,29.95,East,94,0.0,3.0,88,0.00,,,0.07,0,weatherlink.com 1.10,2013-04-23 08:53:00,
2013-04-23 05:08:00,72.2,69.0,29.95,East,94,0.0,1.0,89,0.00,,,0.07,0,weatherlink.com 1.10,2013-04-23 09:08:00,
2013-04-23 05:23:00,71.8,69.0,29.95,East,94,0.0,2.0,89,0.00,,,0.07,0,weatherlink.com 1.10,2013-04-23 09:23:00,
2013-04-23 05:38:00,71.6,68.0,29.95,East,94,0.0,1.0,89,0.00,,,0.07,0,weatherlink.com 1.10,2013-04-23 09:38:00,
2013-04-23 05:53:00,71.5,68.0,29.95,East,94,0.0,2.0,89,0.00,,,0.07,0,weatherlink.com 1.10,2013-04-23 09:53:00,
2013-04-23 06:08:00,71.4,68.0,29.96,East,94,0.0,0.0,89,0.00,,,0.07,9,weatherlink.com 1.10,2013-04-23 10:08:00,
2013-04-23 06:23:00,71.4,68.0,29.96,East,94,0.0,1.0,89,0.00,,,0.07,39,weatherlink.com 1.10,2013-04-23 10:23:00,
2013-04-23 06:38:00,72.1,69.0,29.96,East,94,0.0,2.0,90,0.00,,,0.07,86,weatherlink.com 1.10,2013-04-23 10:38:00,
2013-04-23 06:53:00,72.5,69.0,29.96,East,94,0.0,3.0,89,0.00,,,0.07,141,weatherlink.com 1.10,2013-04-23 10:53:00,
2013-04-23 07:08:00,73.1,69.0,29.97,East,94,0.0,3.0,87,0.00,,,0.07,192,weatherlink.com 1.10,2013-04-23 11:08:00,
2013-04-23 07:23:00,73.8,69.0,29.97,East,94,0.0,2.0,84,0.00,,,0.07,260,weatherlink.com 1.10,2013-04-23 11:23:00,
2013-04-23 07:38:00,74.6,69.0,29.97,East,94,0.0,1.0,82,0.00,,,0.07,313,weatherlink.com 1.10,2013-04-23 11:38:00,
2013-04-23 07:53:00,75.9,69.0,29.98,East,94,3.0,7.0,78,0.00,,,0.07,392,weatherlink.com 1.10,2013-04-23 11:53:00,
2013-04-23 08:09:00,78.0,70.0,29.98,East,94,3.0,3.0,76,0.00,,,0.07,443,weatherlink.com 1.10,2013-04-23 12:09:00,
2013-04-23 08:24:00,79.2,69.0,29.98,NE,56,4.0,6.0,72,0.00,,,0.07,582,weatherlink.com 1.10,2013-04-23 12:24:00,
2013-04-23 08:39:00,79.7,70.0,29.98,East,92,5.0,7.0,72,0.00,,,0.07,550,weatherlink.com 1.10,2013-04-23 12:39:00,
2013-04-23 08:54:00,80.6,71.0,29.99,ENE,77,3.0,8.0,72,0.00,,,0.07,613,weatherlink.com 1.10,2013-04-23 12:54:00,
2013-04-23 09:09:00,81.4,71.0,29.99,ENE,69,3.0,9.0,71,0.00,,,0.07,654,weatherlink.com 1.10,2013-04-23 13:09:00,
2013-04-23 09:24:00,81.9,71.0,29.99,East,80,10.0,11.0,70,0.01,,,0.08,745,weatherlink.com 1.10,2013-04-23 13:24:00,
2013-04-23 09:39:00,82.5,71.0,29.99,East,96,9.0,15.0,69,0.01,,,0.08,737,weatherlink.com 1.10,2013-04-23 13:39:00,
2013-04-23 09:54:00,82.2,72.0,30.00,ENE,60,5.0,17.0,70,0.01,,,0.08,782,weatherlink.com 1.10,2013-04-23 13:54:00,
2013-04-23 10:09:00,82.5,71.0,29.99,ENE,71,8.0,17.0,69,0.01,,,0.08,817,weatherlink.com 1.10,2013-04-23 14:09:00,
2013-04-23 10:24:00,82.7,71.0,29.99,NNE,26,7.0,14.0,68,0.00,,,0.08,854,weatherlink.com 1.10,2013-04-23 14:24:00,
2013-04-23 10:39:00,83.0,72.0,29.99,East,101,10.0,17.0,69,0.00,,,0.08,886,weatherlink.com 1.10,2013-04-23 14:39:00,
2013-04-23 10:54:00,83.4,72.0,29.99,NE,42,9.0,18.0,68,0.00,,,0.08,919,weatherlink.com 1.10,2013-04-23 14:54:00,
2013-04-23 11:09:00,83.3,71.0,29.98,East,83,13.0,19.0,67,0.00,,,0.08,944,weatherlink.com 1.10,2013-04-23 15:09:00,
2013-04-23 11:24:00,84.0,71.0,29.98,ENE,57,12.0,19.0,66,0.00,,,0.08,949,weatherlink.com 1.10,2013-04-23 15:24:00,
2013-04-23 11:39:00,83.9,71.0,29.97,East,80,9.0,22.0,65,0.00,,,0.08,216,weatherlink.com 1.10,2013-04-23 15:39:00,
2013-04-23 11:54:00,84.0,71.0,29.97,NE,55,4.0,19.0,66,0.00,,,0.08,810,weatherlink.com 1.10,2013-04-23 15:54:00,
2013-04-23 12:09:00,84.3,71.0,29.96,East,89,16.0,17.0,65,0.00,,,0.08,325,weatherlink.com 1.10,2013-04-23 16:09:00,
2013-04-23 12:24:00,82.6,71.0,29.96,ENE,65,5.0,19.0,68,0.00,,,0.08,325,weatherlink.com 1.10,2013-04-23 16:24:00,
2013-04-23 12:39:00,82.3,71.0,29.96,East,81,13.0,17.0,68,0.00,,,0.08,513,weatherlink.com 1.10,2013-04-23 16:39:00,
2013-04-23 12:54:00,83.7,72.0,29.95,East,92,10.0,14.0,67,0.00,,,0.08,359,weatherlink.com 1.10,2013-04-23 16:54:00,
2013-04-23 13:09:00,82.3,70.0,29.95,ENE,61,12.0,17.0,67,0.00,,,0.08,427,weatherlink.com 1.10,2013-04-23 17:09:00,
2013-04-23 13:24:00,83.0,70.0,29.94,ESE,107,12.0,19.0,66,0.00,,,0.08,670,weatherlink.com 1.10,2013-04-23 17:24:00,
2013-04-23 13:39:00,82.8,71.0,29.94,ENE,58,13.0,20.0,67,0.00,,,0.08,362,weatherlink.com 1.10,2013-04-23 17:39:00,
2013-04-23 13:54:00,83.4,71.0,29.94,NE,38,11.0,19.0,66,0.00,,,0.08,1109,weatherlink.com 1.10,2013-04-23 17:54:00,
2013-04-23 14:09:00,83.7,71.0,29.93,NE,46,12.0,19.0,65,0.00,,,0.08,336,weatherlink.com 1.10,2013-04-23 18:09:00,
2013-04-23 14:24:00,84.0,71.0,29.93,ENE,78,9.0,21.0,66,0.00,,,0.08,369,weatherlink.com 1.10,2013-04-23 18:24:00,
2013-04-23 14:39:00,84.2,73.0,29.92,NNE,32,5.0,18.0,68,0.00,,,0.08,831,weatherlink.com 1.10,2013-04-23 18:39:00,
2013-04-23 14:54:00,83.9,72.0,29.92,East,90,8.0,19.0,67,0.00,,,0.08,788,weatherlink.com 1.10,2013-04-23 18:54:00,
2013-04-23 15:10:00,83.8,73.0,29.91,ESE,102,15.0,17.0,69,0.00,,,0.08,721,weatherlink.com 1.10,2013-04-23 19:10:00,
2013-04-23 15:25:00,83.2,72.0,29.90,East,90,13.0,20.0,68,0.00,,,0.08,670,weatherlink.com 1.10,2013-04-23 19:25:00,
2013-04-23 15:40:00,83.2,72.0,29.90,ENE,57,8.0,21.0,69,0.00,,,0.08,613,weatherlink.com 1.10,2013-04-23 19:40:00,
2013-04-23 15:55:00,82.7,72.0,29.89,ENE,65,10.0,22.0,71,0.00,,,0.08,564,weatherlink.com 1.10,2013-04-23 19:55:00,
2013-04-23 16:10:00,82.6,72.0,29.90,East,95,17.0,20.0,71,0.00,,,0.08,510,weatherlink.com 1.10,2013-04-23 20:10:00,
2013-04-23 16:25:00,82.3,72.0,29.90,ENE,61,5.0,19.0,72,0.00,,,0.08,446,weatherlink.com 1.10,2013-04-23 20:25:00,
2013-04-23 16:40:00,82.0,72.0,29.89,East,86,8.0,26.0,72,0.00,,,0.08,401,weatherlink.com 1.10,2013-04-23 20:40:00,
2013-04-23 16:55:00,81.6,72.0,29.90,NE,51,16.0,19.0,73,0.00,,,0.08,334,weatherlink.com 1.10,2013-04-23 20:55:00,
2013-04-23 17:10:00,80.6,72.0,29.90,ENE,59,8.0,24.0,75,0.00,,,0.08,69,weatherlink.com 1.10,2013-04-23 21:10:00,
2013-04-23 17:25:00,80.2,72.0,29.90,ESE,103,14.0,18.0,76,0.00,,,0.08,120,weatherlink.com 1.10,2013-04-23 21:25:00,
2013-04-23 17:40:00,80.0,72.0,29.90,East,82,10.0,18.0,77,0.00,,,0.08,76,weatherlink.com 1.10,2013-04-23 21:40:00,
2013-04-23 17:55:00,79.6,72.0,29.91,East,88,9.0,18.0,77,0.00,,,0.08,49,weatherlink.com 1.10,2013-04-23 21:55:00,
2013-04-23 18:10:00,79.4,72.0,29.91,ENE,67,5.0,21.0,77,0.00,,,0.08,30,weatherlink.com 1.10,2013-04-23 22:10:00,
2013-04-23 18:25:00,79.3,72.0,29.92,East,82,10.0,15.0,77,0.00,,,0.08,11,weatherlink.com 1.10,2013-04-23 22:25:00,
2013-04-23 18:40:00,79.3,71.0,29.92,East,83,6.0,9.0,75,0.00,,,0.08,0,weatherlink.com 1.10,2013-04-23 22:40:00,
2013-04-23 18:55:00,79.4,70.0,29.93,ESE,123,11.0,17.0,73,0.00,,,0.08,0,weatherlink.com 1.10,2013-04-23 22:55:00,
2013-04-23 19:10:00,79.4,70.0,29.93,ESE,104,5.0,10.0,73,0.00,,,0.08,0,weatherlink.com 1.10,2013-04-23 23:10:00,
2013-04-23 19:25:00,79.3,70.0,29.94,ENE,78,5.0,13.0,73,0.00,,,0.08,0,weatherlink.com 1.10,2013-04-23 23:25:00,
2013-04-23 19:40:00,79.1,70.0,29.95,East,86,9.0,11.0,73,0.00,,,0.08,0,weatherlink.com 1.10,2013-04-23 23:40:00,
2013-04-23 19:55:00,78.9,70.0,29.96,NE,55,3.0,9.0,75,0.00,,,0.08,0,weatherlink.com 1.10,2013-04-23 23:55:00,
2013-04-23 20:10:00,78.7,71.0,29.97,ENE,71,7.0,10.0,76,0.00,,,0.08,0,weatherlink.com 1.10,2013-04-24 00:10:00,
2013-04-23 20:25:00,78.5,71.0,29.97,East,86,6.0,10.0,77,0.00,,,0.08,0,weatherlink.com 1.10,2013-04-24 00:25:00,
2013-04-23 20:40:00,78.4,71.0,29.98,East,96,7.0,13.0,77,0.00,,,0.08,0,weatherlink.com 1.10,2013-04-24 00:40:00,
2013-04-23 20:55:00,78.1,70.0,29.98,East,88,7.0,12.0,77,0.00,,,0.08,0,weatherlink.com 1.10,2013-04-24 00:55:00,
2013-04-23 21:10:00,78.1,70.0,29.98,East,96,5.0,13.0,77,0.00,,,0.08,0,weatherlink.com 1.10,2013-04-24 01:10:00,
2013-04-23 21:25:00,78.3,71.0,29.98,ESE,122,3.0,10.0,77,0.00,,,0.08,0,weatherlink.com 1.10,2013-04-24 01:25:00,
2013-04-23 21:40:00,78.2,70.0,29.99,East,79,1.0,10.0,77,0.00,,,0.08,0,weatherlink.com 1.10,2013-04-24 01:40:00,
2013-04-23 21:55:00,78.2,70.0,30.00,ESE,103,4.0,10.0,77,0.00,,,0.08,0,weatherlink.com 1.10,2013-04-24 01:55:00,
2013-04-23 22:10:00,78.2,71.0,30.00,East,84,7.0,10.0,78,0.00,,,0.08,0,weatherlink.com 1.10,2013-04-24 02:10:00,
2013-04-23 22:40:00,77.8,71.0,30.00,ESE,113,2.0,12.0,80,0.00,,,0.08,0,weatherlink.com 1.10,2013-04-24 02:40:00,
2013-04-23 22:55:00,77.6,71.0,30.00,ESE,123,3.0,11.0,81,0.00,,,0.08,0,weatherlink.com 1.10,2013-04-24 02:55:00,
2013-04-23 23:25:00,77.1,71.0,29.99,East,98,5.0,8.0,82,0.00,,,0.08,0,weatherlink.com 1.10,2013-04-24 03:25:00,
2013-04-23 23:55:00,76.9,71.0,29.99,SE,127,4.0,8.0,82,0.00,,,0.08,0,weatherlink.com 1.10,2013-04-24 03:55:00,